| Date | Time | Temp. (oF) | Dew Point (oF) | Rel. Hum. (%) | Press. (in.) | Wind Dir. | Wind Speed (mph) | Hourly Rainfall (in.) |
|
|---|---|---|---|---|---|---|---|---|---|
| 1 | 07/19 | 00:00 | 72 | 70 | 94 | 30.07 | SE | 0 | 0.00 |
| 2 | 07/18 | 23:00 | 73 | 70 | 93 | 30.07 | SE | 0 | 0.00 |
| 3 | 07/18 | 22:00 | 75 | 71 | 88 | 30.07 | SE | 0 | 0.00 |
| 4 | 07/18 | 21:00 | 77 | 70 | 80 | 30.05 | SSE | 2 | 0.00 |
| 5 | 07/18 | 20:00 | 80 | 70 | 73 | 30.04 | S | 2 | 0.00 |
| 6 | 07/18 | 19:00 | 82 | 70 | 68 | 30.04 | SSW | 4 | 0.00 |
| 7 | 07/18 | 18:00 | 84 | 71 | 66 | 30.03 | S | 7 | 0.00 |
| 8 | 07/18 | 17:00 | 84 | 69 | 62 | 30.04 | S | 7 | 0.00 |
| 9 | 07/18 | 16:00 | 85 | 73 | 69 | 30.04 | SSE | 4 | 0.00 |
| 10 | 07/18 | 15:00 | 88 | 76 | 68 | 30.04 | ESE | 5 | 0.00 |
| 11 | 07/18 | 14:00 | 88 | 72 | 60 | 30.05 | WSW | 5 | 0.00 |
| 12 | 07/18 | 13:00 | 86 | 75 | 70 | 30.08 | SSW | 3 | 0.00 |
| 13 | 07/18 | 12:00 | 84 | 73 | 70 | 30.10 | S | 4 | 0.00 |
| 14 | 07/18 | 11:00 | 82 | 73 | 76 | 30.10 | SW | 2 | 0.00 |
| 15 | 07/18 | 10:00 | 77 | 73 | 90 | 30.11 | SSE | 3 | 0.00 |
| 16 | 07/18 | 09:00 | 75 | 72 | 93 | 30.10 | S | 3 | 0.00 |
| 17 | 07/18 | 08:00 | 71 | 70 | 99 | 30.09 | E | 1 | 0.00 |
| 18 | 07/18 | 07:00 | 67 | 67 | 100 | 30.09 | NE | 0 | 0.00 |
| 19 | 07/18 | 06:00 | 66 | 66 | 100 | 30.08 | WNW | 1 | 0.00 |
| 20 | 07/18 | 05:00 | 65 | 64 | 100 | 30.07 | WNW | 0 | 0.00 |
| 21 | 07/18 | 04:00 | 65 | 64 | 100 | 30.06 | WNW | 0 | 0.00 |
| 22 | 07/18 | 03:00 | 65 | 64 | 99 | 30.06 | NNE | 1 | 0.00 |
| 23 | 07/18 | 02:00 | 65 | 64 | 100 | 30.06 | NNE | 1 | 0.00 |
| 24 | 07/18 | 01:00 | 66 | 65 | 99 | 30.06 | NNE | 2 | 0.00 |